OLBO2: North Canadian River

Data processed at Thu Jun 30 23:20:31 2016 Central Daylight Time


All information presented herein is the property of the government of the United States of America and may be revised or deleted at any time without prior notice.
Dissemination of this information without the expressed written consent of the Public Affairs Office, Tulsa District U.S. Army Corps of Engineers is strictly prohibited.
These data are gathered electronically and, as presented, have not undergone any form of quality control. These data are not guaranteed to be valid or correct.
Go to home page.
Go to station list.
Go to station map.

Upstream stations:

Downstream station: Previous Day
Next Day
Current Day

Display graphics.
Display DCP transmissions.


    
    SHEF ID:       OLBO2     North Canadian River
    STATION TYPE:  STREAM GAGE
    Regulation Limits:  Stage =   24.00, Flow =   11480
    
                   PRECIP     STAGE  RIV-FLOW  WTR-TEMP   DIS-OXY        PH   CONDUCT  BAT-LOAD
                   INCHES      FEET       CFS     DEG-C      MG/L        PH     US/CM     VOLTS
                     GOES      GOES      GOES      GOES      GOES      GOES      GOES      GOES
       (Cen)
    06/30 01:00      0.00      4.41     19.85     27.22      5.19      ----      1281     12.65
    06/30 02:00      0.00      4.41     19.85     27.00      5.08      ----      1286     12.65
    06/30 03:00      0.00      4.40     19.48     26.85      5.08      ----      1294     12.65
    06/30 04:00      0.00      4.40     19.48     26.72      5.07      ----      1300     12.57
    06/30 05:00      0.00      4.40     19.48     26.55      4.98      ----      1303     12.57
    06/30 06:00      0.00      4.40     19.48     26.43      4.97      ----      1305     12.57
    06/30 07:00      0.00      4.40     19.48     26.35      4.96      ----      1307     12.57
    06/30 08:00      0.00      4.40     19.48     26.39      5.21      ----      1312     12.57
    06/30 09:00      0.00      4.39     19.12     26.53      5.80      ----      1318     12.73
    06/30 10:00      0.00      4.39     19.12     26.80      6.43      ----      1326     12.97
    06/30 11:00      0.00      4.39     19.12     27.19      7.28      ----      1332     13.13
    06/30 12:00      0.00      4.38     18.76     28.32      8.61      ----      1332     13.37
    06/30 13:00      0.00      4.33     17.00     29.53      9.58      ----      1327     13.44
    06/30 14:00      0.00      4.38     18.76     30.19     10.15      ----      1328     13.37
    06/30 15:00      0.00      4.38     18.76     30.70     10.69      ----      1321     13.05
    06/30 16:00      0.00      4.39     19.12     31.24     10.98      ----      1317     12.97
    06/30 17:00      0.00      4.39     19.12     31.65     11.11      ----      1308     12.89
    06/30 18:00      0.00      4.39     19.12     31.36     10.54      ----      1302     12.89
    06/30 19:00      0.00      4.39     19.12     30.69      9.56      ----      1298     12.89
    06/30 20:00      0.00      4.39     19.12     29.81      8.20      ----      1301     12.89
    06/30 21:00      0.00      4.40     19.48     29.08      7.12      ----      1303     12.73
    06/30 22:00      0.00      4.40     19.48     28.37      6.02      ----      1297     12.73
    06/30 23:00      0.00      4.40     19.48     27.86      5.42      ----      1302     12.65
    07/01 00:00      ----      ----      ----      ----      ----      ----      ----      ----